EGBB/BHX METAR and TAF weather

Enter ICAO airport designator
Station Type Date Time Source
EGBB METAR 2022/06/28 14:20 UTC NOAA

EGBB 281420Z 18014KT 150V210 9999 BKN049 19/09 Q1014


Station Type Date Time Source
EGBB Decoded METAR 2022/06/28 14:20 UTC NOAA

Birmingham / Airport, United Kingdom (EGBB) 52-27N 001-44W 0M
Jun 28, 2022 - 10:20 AM EDT / 2022.06.28 1420 UTC
Wind: from the S (180 degrees) at 16 MPH (14 KT) (direction variable):0
Visibility: greater than 7 mile(s):0
Sky conditions: mostly cloudy
Temperature: 66 F (19 C)
Dew Point: 48 F (9 C)
Relative Humidity: 52%
Pressure (altimeter): 29.94 in. Hg (1014 hPa)
ob: EGBB 281420Z 18014KT 150V210 9999 BKN049 19/09 Q1014
cycle: 14

Station Type Date Time Source
EGBB TAF 2022/06/28 12:09 UTC NOAA

TAF EGBB 281055Z 2812/2912 18012KT 9999 SCT030 PROB40
TEMPO 2812/2818 19017G27KT
TEMPO 2818/2907 7000 RA PROB30
TEMPO 2820/2906 4000 +RA
TEMPO 2900/2907 BKN008

Example: see airport list